createdAt,value
2022-12-05T00:01:19.300Z,3.11
2022-12-05T00:03:48.057Z,3.08
2022-12-05T00:06:15.236Z,3.08
2022-12-05T00:08:41.631Z,3.12
2022-12-05T00:11:13.198Z,3.17
2022-12-05T00:13:40.776Z,3.20
2022-12-05T00:16:12.735Z,3.30
2022-12-05T00:18:39.469Z,3.24
2022-12-05T00:21:07.545Z,3.17
2022-12-05T00:23:34.209Z,3.19
2022-12-05T00:26:05.085Z,3.17
2022-12-05T00:28:35.064Z,3.17
2022-12-05T00:31:06.886Z,3.11
2022-12-05T00:33:33.512Z,3.13
2022-12-05T00:36:08.241Z,3.17
2022-12-05T00:38:35.392Z,3.18
2022-12-05T00:41:06.439Z,3.18
2022-12-05T00:43:33.651Z,3.08
2022-12-05T00:46:08.072Z,3.13
2022-12-05T00:48:35.338Z,3.17
2022-12-05T00:51:10.694Z,3.15
2022-12-05T00:53:37.634Z,3.18
2022-12-05T00:56:09.746Z,3.15
2022-12-05T00:58:37.003Z,3.18
2022-12-05T01:01:14.802Z,3.17
2022-12-05T01:03:42.551Z,3.16
2022-12-05T01:06:10.542Z,3.18
2022-12-05T01:08:37.392Z,3.16
2022-12-05T01:11:05.903Z,3.24
2022-12-05T01:13:32.990Z,3.28
2022-12-05T01:15:59.657Z,3.30
2022-12-05T01:18:27.030Z,3.30
2022-12-05T01:20:53.375Z,3.31
2022-12-05T01:23:20.053Z,3.30
2022-12-05T01:25:49.348Z,3.32
2022-12-05T01:28:17.062Z,3.30
2022-12-05T01:30:46.119Z,3.34
2022-12-05T01:33:12.969Z,3.39
2022-12-05T01:35:40.834Z,3.43
2022-12-05T01:38:08.711Z,3.36
2022-12-05T01:40:36.187Z,3.36
2022-12-05T01:43:03.012Z,3.35
2022-12-05T01:45:36.698Z,3.37
2022-12-05T01:48:09.179Z,3.35
2022-12-05T01:50:36.169Z,3.39
2022-12-05T01:53:04.045Z,3.44
2022-12-05T01:55:30.850Z,3.37
2022-12-05T01:57:58.726Z,3.40
2022-12-05T02:00:25.154Z,3.39
2022-12-05T02:02:56.865Z,3.45
2022-12-05T02:05:28.110Z,3.47
2022-12-05T02:07:55.098Z,3.50
2022-12-05T02:10:21.429Z,3.54
2022-12-05T02:12:49.926Z,3.54
2022-12-05T02:15:30.484Z,3.53
2022-12-05T02:18:19.474Z,3.55
2022-12-05T02:20:57.405Z,3.57
2022-12-05T02:23:34.375Z,3.51
2022-12-05T02:26:17.949Z,3.51
2022-12-05T02:29:02.723Z,3.54
2022-12-05T02:31:48.414Z,3.56
2022-12-05T02:34:28.995Z,3.49
2022-12-05T02:37:02.209Z,3.53
2022-12-05T02:40:03.103Z,3.53
2022-12-05T02:43:14.452Z,3.51
2022-12-05T02:45:43.967Z,3.53
2022-12-05T02:48:14.063Z,3.57
2022-12-05T02:50:42.563Z,3.53
2022-12-05T02:53:13.074Z,3.51
2022-12-05T02:55:41.699Z,3.52
2022-12-05T02:58:14.403Z,3.52
2022-12-05T03:00:44.589Z,3.49
2022-12-05T03:03:18.233Z,3.52
2022-12-05T03:06:09.409Z,3.48
2022-12-05T03:08:44.928Z,3.48
2022-12-05T03:11:11.403Z,3.49
2022-12-05T03:13:59.442Z,3.52
2022-12-05T03:16:34.282Z,3.53
2022-12-05T03:19:14.130Z,3.53
2022-12-05T03:21:47.630Z,3.51
2022-12-05T03:24:14.907Z,3.52
2022-12-05T03:27:03.984Z,3.54
2022-12-05T03:29:49.892Z,3.60
2022-12-05T03:32:37.850Z,3.56
2022-12-05T03:35:07.267Z,3.52
2022-12-05T03:38:11.669Z,3.52
2022-12-05T03:40:41.691Z,3.57
2022-12-05T03:43:14.088Z,3.58
2022-12-05T03:45:59.141Z,3.52
2022-12-05T03:48:33.336Z,3.48
2022-12-05T03:51:01.047Z,3.51
2022-12-05T03:53:55.980Z,3.50
2022-12-05T03:56:29.867Z,3.53
2022-12-05T03:59:37.966Z,3.49
2022-12-05T04:02:10.967Z,3.46
2022-12-05T04:04:42.613Z,3.53
2022-12-05T04:07:11.166Z,3.54
2022-12-05T04:09:44.359Z,3.55
2022-12-05T04:12:17.248Z,3.55
2022-12-05T04:14:48.255Z,3.55
2022-12-05T04:17:25.790Z,3.49
2022-12-05T04:20:41.209Z,3.43
2022-12-05T04:23:09.323Z,3.47
2022-12-05T04:26:21.127Z,3.36
2022-12-05T04:29:01.375Z,3.42
2022-12-05T04:31:34.487Z,3.36
2022-12-05T04:34:07.656Z,3.31
2022-12-05T04:37:02.524Z,3.32
2022-12-05T04:39:57.102Z,3.36
2022-12-05T04:42:28.115Z,3.39
2022-12-05T04:45:00.214Z,3.35
2022-12-05T04:47:31.095Z,3.33
2022-12-05T04:49:59.882Z,3.36
2022-12-05T04:52:28.624Z,3.39
2022-12-05T04:55:02.271Z,3.36
2022-12-05T04:57:34.000Z,3.34
2022-12-05T05:00:00.878Z,3.34
2022-12-05T05:02:57.571Z,3.39
2022-12-05T05:05:23.913Z,3.40
2022-12-05T05:07:53.593Z,3.42
2022-12-05T05:10:27.111Z,3.39
2022-12-05T05:12:53.678Z,3.44
2022-12-05T05:15:20.008Z,3.39
2022-12-05T05:17:46.302Z,3.37
2022-12-05T05:20:24.888Z,3.26
2022-12-05T05:22:52.739Z,3.27
2022-12-05T05:25:20.019Z,3.26
2022-12-05T05:27:54.647Z,3.27
2022-12-05T05:30:22.942Z,3.23
2022-12-05T05:32:49.566Z,3.23
2022-12-05T05:35:16.044Z,3.19
2022-12-05T05:37:42.740Z,3.20
2022-12-05T05:40:11.737Z,3.20
2022-12-05T05:42:48.779Z,3.19
2022-12-05T05:45:15.666Z,3.16
2022-12-05T05:47:42.028Z,3.19
2022-12-05T05:50:09.949Z,3.15
2022-12-05T05:52:37.956Z,3.12
2022-12-05T05:55:05.966Z,3.11
2022-12-05T05:57:32.584Z,2.99
2022-12-05T05:59:59.311Z,2.94
2022-12-05T06:02:25.997Z,2.97
2022-12-05T06:04:52.307Z,2.99
2022-12-05T06:07:18.683Z,2.98
2022-12-05T06:09:45.018Z,3.01
2022-12-05T06:12:11.337Z,2.96
2022-12-05T06:14:37.658Z,2.95
2022-12-05T06:17:04.982Z,2.92
2022-12-05T06:19:31.309Z,2.92
2022-12-05T06:21:57.626Z,2.86
2022-12-05T06:24:23.985Z,2.82
2022-12-05T06:26:50.300Z,2.83
2022-12-05T06:29:16.630Z,2.84
2022-12-05T06:31:42.971Z,2.77
2022-12-05T06:34:09.434Z,2.71
2022-12-05T06:36:35.799Z,2.61
2022-12-05T06:39:02.156Z,2.63
2022-12-05T06:41:28.487Z,2.65
2022-12-05T06:44:01.663Z,2.58
2022-12-05T06:46:29.001Z,2.61
2022-12-05T06:48:57.807Z,2.52
2022-12-05T06:51:24.680Z,2.40
2022-12-05T06:53:51.043Z,2.46
2022-12-05T06:56:19.561Z,2.46
2022-12-05T06:58:48.708Z,2.48
2022-12-05T07:01:38.960Z,2.41
2022-12-05T07:04:15.366Z,2.43
2022-12-05T07:06:48.683Z,2.47
2022-12-05T07:09:18.408Z,2.46
2022-12-05T07:11:49.282Z,2.50
2022-12-05T07:14:38.914Z,2.45
2022-12-05T07:17:02.285Z,2.46
2022-12-05T07:19:28.652Z,2.46
2022-12-05T07:21:54.957Z,2.37
2022-12-05T07:24:21.340Z,2.45
2022-12-05T07:26:47.636Z,2.51
2022-12-05T07:29:13.931Z,2.53
2022-12-05T07:31:40.257Z,2.52
2022-12-05T07:34:06.569Z,2.39
2022-12-05T07:36:32.949Z,2.46
2022-12-05T07:38:59.395Z,2.39
2022-12-05T07:41:27.984Z,2.33
2022-12-05T07:43:56.520Z,2.37
2022-12-05T07:46:23.724Z,2.27
2022-12-05T07:48:51.283Z,2.23
2022-12-05T07:51:18.710Z,2.24
2022-12-05T07:53:45.970Z,2.22
2022-12-05T07:56:16.748Z,2.23
2022-12-05T07:58:44.326Z,2.28
2022-12-05T08:01:14.614Z,2.22
2022-12-05T08:03:42.081Z,2.22
2022-12-05T08:06:12.538Z,2.19
2022-12-05T08:08:39.084Z,2.28
2022-12-05T08:11:08.296Z,2.32
2022-12-05T08:13:34.817Z,2.25
2022-12-05T08:16:06.465Z,2.14
2022-12-05T08:18:32.843Z,2.14
2022-12-05T08:21:14.195Z,2.18
2022-12-05T08:23:41.329Z,2.11
2022-12-05T08:26:20.363Z,2.14
2022-12-05T08:28:50.444Z,2.13
2022-12-05T08:31:18.173Z,2.12
2022-12-05T08:33:44.728Z,2.15
2022-12-05T08:36:13.377Z,2.14
2022-12-05T08:38:39.694Z,2.16
2022-12-05T08:41:11.921Z,2.01
2022-12-05T08:43:38.355Z,1.97
2022-12-05T08:46:06.152Z,2.02
2022-12-05T08:48:33.832Z,1.99
2022-12-05T08:51:05.640Z,2.03
2022-12-05T08:53:32.038Z,2.10
2022-12-05T08:56:02.855Z,2.17
2022-12-05T08:58:29.573Z,2.21
2022-12-05T09:01:19.717Z,2.07
2022-12-05T09:03:48.209Z,2.03
2022-12-05T09:06:22.245Z,2.01
2022-12-05T09:08:49.689Z,1.96
2022-12-05T09:11:20.751Z,1.94
2022-12-05T09:13:47.941Z,1.98
2022-12-05T09:16:20.944Z,1.99
2022-12-05T09:18:48.635Z,2.04
2022-12-05T09:21:17.970Z,1.99
2022-12-05T09:23:45.286Z,1.97
2022-12-05T09:26:14.142Z,1.99
2022-12-05T09:28:41.759Z,1.92
2022-12-05T09:31:10.659Z,1.95
2022-12-05T09:33:37.962Z,1.84
2022-12-05T09:36:06.211Z,1.92
2022-12-05T09:38:33.327Z,1.82
2022-12-05T09:41:45.516Z,1.88
2022-12-05T09:44:48.643Z,1.91
2022-12-05T09:47:39.902Z,1.93
2022-12-05T09:50:18.773Z,1.86
2022-12-05T09:53:06.198Z,1.90
2022-12-05T09:55:46.908Z,1.87
2022-12-05T09:58:21.773Z,1.90
2022-12-05T10:00:51.961Z,1.90
2022-12-05T10:03:27.420Z,1.91
2022-12-05T10:06:02.104Z,1.98
2022-12-05T10:08:58.340Z,1.95
2022-12-05T10:11:36.271Z,1.97
2022-12-05T10:14:35.666Z,1.93
2022-12-05T10:17:15.808Z,1.87
2022-12-05T10:19:47.446Z,1.88
2022-12-05T10:22:20.740Z,1.98
2022-12-05T10:24:52.348Z,1.99
2022-12-05T10:27:35.406Z,2.04
2022-12-05T10:30:16.175Z,1.95
2022-12-05T10:33:09.278Z,2.04
2022-12-05T10:35:39.003Z,2.04
2022-12-05T10:38:11.019Z,2.08
2022-12-05T10:40:40.255Z,2.18
2022-12-05T10:43:09.888Z,2.02
2022-12-05T10:45:45.323Z,1.97
2022-12-05T10:48:13.839Z,2.00
2022-12-05T10:50:43.267Z,1.94
2022-12-05T10:53:17.718Z,2.01
2022-12-05T10:56:28.020Z,2.09
2022-12-05T10:58:55.639Z,1.98
2022-12-05T11:01:23.029Z,2.02
2022-12-05T11:03:59.780Z,2.03
2022-12-05T11:06:28.923Z,2.01
2022-12-05T11:09:05.882Z,1.98
2022-12-05T11:11:33.554Z,1.94
2022-12-05T11:14:06.022Z,1.96
2022-12-05T11:16:38.815Z,1.96
2022-12-05T11:19:28.495Z,1.98
2022-12-05T11:21:55.897Z,2.01
2022-12-05T11:24:34.937Z,2.03
2022-12-05T11:27:26.222Z,1.98
2022-12-05T11:30:20.590Z,1.94
2022-12-05T11:32:47.215Z,1.99
2022-12-05T11:35:13.509Z,1.99
2022-12-05T11:37:54.759Z,2.04
2022-12-05T11:40:45.855Z,2.08
2022-12-05T11:43:24.344Z,2.15
2022-12-05T11:46:14.094Z,2.08
2022-12-05T11:48:59.407Z,2.05
2022-12-05T11:51:34.954Z,2.13
2022-12-05T11:55:04.029Z,2.00
2022-12-05T11:57:44.129Z,2.06
2022-12-05T12:00:27.587Z,2.06
2022-12-05T12:03:08.280Z,2.03
2022-12-05T12:05:37.652Z,2.05
2022-12-05T12:08:27.471Z,2.13
2022-12-05T12:11:22.906Z,2.15
2022-12-05T12:14:05.565Z,2.20
2022-12-05T12:17:01.873Z,2.18
2022-12-05T12:19:46.498Z,2.21
2022-12-05T12:22:20.233Z,2.26
2022-12-05T12:25:18.992Z,2.27
2022-12-05T12:28:06.696Z,2.22
2022-12-05T12:30:44.071Z,2.28
2022-12-05T12:33:26.830Z,2.31
2022-12-05T12:36:09.592Z,2.20
2022-12-05T12:39:04.375Z,2.05
2022-12-05T12:41:57.248Z,2.14
2022-12-05T12:44:52.483Z,2.08
2022-12-05T12:47:44.688Z,1.97
2022-12-05T12:50:24.891Z,2.01
2022-12-05T12:53:09.623Z,2.02
2022-12-05T12:55:50.852Z,2.01
2022-12-05T12:58:50.367Z,1.95
2022-12-05T13:01:44.982Z,1.98
2022-12-05T13:04:22.174Z,1.92
2022-12-05T13:06:55.326Z,1.86
2022-12-05T13:09:34.755Z,1.91
2022-12-05T13:12:07.067Z,1.90
2022-12-05T13:14:37.119Z,1.90
2022-12-05T13:17:06.550Z,1.98
2022-12-05T13:19:49.154Z,1.90
2022-12-05T13:22:18.033Z,1.92
2022-12-05T13:24:44.479Z,1.98
2022-12-05T13:27:20.363Z,1.98
2022-12-05T13:29:59.409Z,1.97
2022-12-05T13:32:36.956Z,2.09
2022-12-05T13:35:44.136Z,1.97
2022-12-05T13:38:41.124Z,2.04
2022-12-05T13:41:27.423Z,1.95
2022-12-05T13:44:05.881Z,1.96
2022-12-05T13:46:38.599Z,1.93
2022-12-05T13:49:17.154Z,2.00
2022-12-05T13:51:45.751Z,1.98
2022-12-05T13:54:23.052Z,1.97
2022-12-05T13:57:04.941Z,1.93
2022-12-05T14:00:00.068Z,1.90
2022-12-05T14:02:48.573Z,1.88
2022-12-05T14:05:20.994Z,1.82
2022-12-05T14:07:48.217Z,1.74
2022-12-05T14:10:28.172Z,1.81
2022-12-05T14:12:57.183Z,1.83
2022-12-05T14:15:31.567Z,1.80
2022-12-05T14:18:18.640Z,1.76
2022-12-05T14:21:07.766Z,1.78
2022-12-05T14:23:33.993Z,1.83
2022-12-05T14:26:09.514Z,1.86
2022-12-05T14:29:01.234Z,1.79
2022-12-05T14:31:46.617Z,1.78
2022-12-05T14:34:25.027Z,1.79
2022-12-05T14:36:54.637Z,1.80
2022-12-05T14:39:46.759Z,1.92
2022-12-05T14:42:37.229Z,1.77
2022-12-05T14:45:28.742Z,1.79
2022-12-05T14:48:00.572Z,1.76
2022-12-05T14:50:44.872Z,1.66
2022-12-05T14:53:15.574Z,1.69
2022-12-05T14:55:47.573Z,1.76
2022-12-05T14:58:20.071Z,1.68
2022-12-05T15:00:56.556Z,1.62
2022-12-05T15:03:32.465Z,1.54
2022-12-05T15:06:03.830Z,1.61
2022-12-05T15:08:41.481Z,1.51
2022-12-05T15:11:27.909Z,1.50
2022-12-05T15:14:17.456Z,1.41
2022-12-05T15:16:46.016Z,1.29
2022-12-05T15:19:21.858Z,1.34
2022-12-05T15:21:56.550Z,1.29
2022-12-05T15:24:22.902Z,1.34
2022-12-05T15:26:52.633Z,1.43
2022-12-05T15:29:32.842Z,1.40
2022-12-05T15:31:59.197Z,1.29
2022-12-05T15:34:34.435Z,1.24
2022-12-05T15:37:15.680Z,1.26
2022-12-05T15:40:09.159Z,1.19
2022-12-05T15:42:40.821Z,1.22
2022-12-05T15:45:16.177Z,1.32
2022-12-05T15:47:50.318Z,1.42
2022-12-05T15:50:24.026Z,1.46
2022-12-05T15:52:56.606Z,1.50
2022-12-05T15:55:38.854Z,1.55
2022-12-05T15:58:25.001Z,1.46
2022-12-05T16:00:58.443Z,1.32
2022-12-05T16:03:39.739Z,1.20
2022-12-05T16:06:17.048Z,1.01
2022-12-05T16:08:45.952Z,1.02
2022-12-05T16:11:14.830Z,0.88
2022-12-05T16:13:55.103Z,0.94
2022-12-05T16:16:25.301Z,0.85
2022-12-05T16:18:57.382Z,0.89
2022-12-05T16:21:39.259Z,0.99
2022-12-05T16:24:33.090Z,0.95
2022-12-05T16:27:03.788Z,0.96
2022-12-05T16:29:33.043Z,0.98
2022-12-05T16:32:04.501Z,1.03
2022-12-05T16:34:34.283Z,1.11
2022-12-05T16:37:00.870Z,1.04
2022-12-05T16:39:28.357Z,0.88
2022-12-05T16:41:55.311Z,1.03
2022-12-05T16:44:25.950Z,1.05
2022-12-05T16:46:53.600Z,1.13
2022-12-05T16:49:34.598Z,1.03
2022-12-05T16:52:14.217Z,1.07
2022-12-05T16:54:47.802Z,0.94
2022-12-05T16:57:16.677Z,0.99
2022-12-05T16:59:45.358Z,0.94
2022-12-05T17:02:14.436Z,0.95
2022-12-05T17:04:41.117Z,1.01
2022-12-05T17:07:07.488Z,0.92
2022-12-05T17:09:34.004Z,0.90
2022-12-05T17:12:22.674Z,0.98
2022-12-05T17:14:48.972Z,0.96
2022-12-05T17:17:18.877Z,0.98
2022-12-05T17:19:45.240Z,1.08
2022-12-05T17:22:14.335Z,1.08
2022-12-05T17:24:40.791Z,1.07
2022-12-05T17:27:11.510Z,1.09
2022-12-05T17:29:38.011Z,1.08
2022-12-05T17:32:04.804Z,1.13
2022-12-05T17:34:31.126Z,1.28
2022-12-05T17:36:57.546Z,1.19
2022-12-05T17:39:28.259Z,1.33
2022-12-05T17:41:55.524Z,1.20
2022-12-05T17:44:23.113Z,1.13
2022-12-05T17:46:52.088Z,1.08
2022-12-05T17:49:18.642Z,1.10
2022-12-05T17:52:13.592Z,1.19
2022-12-05T17:54:32.030Z,1.13
2022-12-05T17:56:58.495Z,1.13
2022-12-05T17:59:24.859Z,1.14
2022-12-05T18:01:53.348Z,1.16
2022-12-05T18:04:23.364Z,1.30
2022-12-05T18:06:50.660Z,1.28
2022-12-05T18:09:17.665Z,1.30
2022-12-05T18:11:44.459Z,1.20
2022-12-05T18:14:11.122Z,1.11
2022-12-05T18:16:37.652Z,1.04
2022-12-05T18:19:04.033Z,1.09
2022-12-05T18:21:30.462Z,1.10
2022-12-05T18:23:56.804Z,1.08
2022-12-05T18:26:23.390Z,1.03
2022-12-05T18:28:51.486Z,0.96
2022-12-05T18:31:17.858Z,0.87
2022-12-05T18:33:47.060Z,0.96
2022-12-05T18:36:21.420Z,1.03
2022-12-05T18:38:53.136Z,0.96
2022-12-05T18:41:20.544Z,0.89
2022-12-05T18:43:47.151Z,0.94
2022-12-05T18:46:13.554Z,0.86
2022-12-05T18:48:43.722Z,0.74
2022-12-05T18:51:19.056Z,0.79
2022-12-05T18:53:52.097Z,0.83
2022-12-05T18:56:23.220Z,0.88
2022-12-05T18:58:55.719Z,0.89
2022-12-05T19:01:22.400Z,0.91
2022-12-05T19:03:48.910Z,0.91
2022-12-05T19:06:20.623Z,0.90
2022-12-05T19:08:47.879Z,0.95
2022-12-05T19:11:17.136Z,0.90
2022-12-05T19:13:46.977Z,0.96
2022-12-05T19:16:16.967Z,1.09
2022-12-05T19:18:43.717Z,1.05
2022-12-05T19:21:11.025Z,1.04
2022-12-05T19:23:37.341Z,1.04
2022-12-05T19:26:08.561Z,1.06
2022-12-05T19:28:36.762Z,1.06
2022-12-05T19:31:09.040Z,1.07
2022-12-05T19:33:38.063Z,1.09
2022-12-05T19:36:13.671Z,1.12
2022-12-05T19:38:42.069Z,1.14
2022-12-05T19:41:10.306Z,1.17
2022-12-05T19:43:37.256Z,1.10
2022-12-05T19:46:09.802Z,1.18
2022-12-05T19:48:36.801Z,1.18
2022-12-05T19:51:05.069Z,1.21
2022-12-05T19:53:33.819Z,1.22
2022-12-05T19:56:21.258Z,1.18
2022-12-05T19:58:51.061Z,1.20
2022-12-05T20:01:22.019Z,1.23
2022-12-05T20:03:59.971Z,1.26
2022-12-05T20:06:31.577Z,1.38
2022-12-05T20:08:59.778Z,1.35
2022-12-05T20:11:29.145Z,1.35
2022-12-05T20:13:59.862Z,1.36
2022-12-05T20:16:27.669Z,1.36
2022-12-05T20:18:57.949Z,1.25
2022-12-05T20:21:25.869Z,1.30
2022-12-05T20:23:54.028Z,1.31
2022-12-05T20:26:23.217Z,1.33
2022-12-05T20:28:50.329Z,1.33
2022-12-05T20:31:22.075Z,1.34
2022-12-05T20:33:56.135Z,1.34
2022-12-05T20:36:25.140Z,1.40
2022-12-05T20:39:15.505Z,1.39
2022-12-05T20:41:42.533Z,1.39
2022-12-05T20:44:17.751Z,1.42
2022-12-05T20:46:44.420Z,1.45
2022-12-05T20:49:14.019Z,1.46
2022-12-05T20:51:42.283Z,1.45
2022-12-05T20:54:09.112Z,1.42
2022-12-05T20:56:36.013Z,1.42
2022-12-05T20:59:04.824Z,1.44
2022-12-05T21:01:33.911Z,1.49
2022-12-05T21:04:01.299Z,1.54
2022-12-05T21:06:33.318Z,1.53
2022-12-05T21:09:00.831Z,1.50
2022-12-05T21:11:31.507Z,1.44
2022-12-05T21:14:00.197Z,1.44
2022-12-05T21:16:27.078Z,1.43
2022-12-05T21:18:53.630Z,1.41
2022-12-05T21:21:22.596Z,1.46
2022-12-05T21:23:54.671Z,1.45
2022-12-05T21:26:22.481Z,1.49
2022-12-05T21:28:49.051Z,1.46
2022-12-05T21:31:18.321Z,1.49
2022-12-05T21:33:50.328Z,1.48
2022-12-05T21:36:18.091Z,1.50
2022-12-05T21:38:44.712Z,1.51
2022-12-05T21:41:11.844Z,1.48
2022-12-05T21:43:38.515Z,1.50
2022-12-05T21:46:05.966Z,1.49
2022-12-05T21:48:33.615Z,1.47
2022-12-05T21:51:00.673Z,1.49
2022-12-05T21:53:27.182Z,1.51
2022-12-05T21:56:10.973Z,1.54
2022-12-05T21:58:42.094Z,1.50
2022-12-05T22:01:10.333Z,1.46
2022-12-05T22:03:37.241Z,1.50
2022-12-05T22:06:09.567Z,1.49
2022-12-05T22:08:37.241Z,1.56
2022-12-05T22:11:08.231Z,1.60
2022-12-05T22:13:34.876Z,1.60
2022-12-05T22:16:02.788Z,1.64
2022-12-05T22:18:29.742Z,1.63
2022-12-05T22:21:04.020Z,1.64
2022-12-05T22:23:31.689Z,1.65
2022-12-05T22:26:04.296Z,1.67
2022-12-05T22:28:32.262Z,1.69
2022-12-05T22:31:00.204Z,1.73
2022-12-05T22:33:27.800Z,1.73
2022-12-05T22:35:59.143Z,1.79
2022-12-05T22:38:27.266Z,1.77
2022-12-05T22:40:55.419Z,1.74
2022-12-05T22:43:22.395Z,1.69
2022-12-05T22:45:49.100Z,1.69
2022-12-05T22:48:16.348Z,1.71
2022-12-05T22:50:50.195Z,1.77
2022-12-05T22:53:19.092Z,1.77
2022-12-05T22:55:45.523Z,1.78
2022-12-05T22:58:11.882Z,1.74
2022-12-05T23:00:38.265Z,1.82
2022-12-05T23:03:05.209Z,1.82
2022-12-05T23:05:35.328Z,1.87
2022-12-05T23:08:01.787Z,1.88
2022-12-05T23:10:28.373Z,1.91
2022-12-05T23:12:55.044Z,1.91
2022-12-05T23:15:21.737Z,1.91
2022-12-05T23:17:48.872Z,1.92
2022-12-05T23:20:15.777Z,1.98
2022-12-05T23:22:42.100Z,1.97
2022-12-05T23:25:09.556Z,1.97
2022-12-05T23:27:35.956Z,1.97
2022-12-05T23:30:02.273Z,1.99
2022-12-05T23:32:28.810Z,1.89
2022-12-05T23:34:55.069Z,1.86
2022-12-05T23:40:01.925Z,1.83
2022-12-05T23:42:28.382Z,1.85
2022-12-05T23:44:54.901Z,1.88
2022-12-05T23:47:21.243Z,1.86
2022-12-05T23:49:47.544Z,1.83
2022-12-05T23:52:13.842Z,1.87
2022-12-05T23:54:43.506Z,1.94
2022-12-05T23:57:14.632Z,1.92
2022-12-05T23:59:48.043Z,1.91
